Time;durP1;ratioP1;P1;durP2;ratioP2;P2;SDS_P1;SDS_P2;PMS_P1;PMS_P2;Temp;Humidity;BMP_temperature;BMP_pressure;BME280_temperature;BME280_humidity;BME280_pressure;Samples;Min_cycle;Max_cycle;Signal;HPM_P1;HPM_P2
2022/06/26 00:01:58;;;;;;;3.13;2.67;;;;;;;;;;5054057;28;20049;-67
2022/06/26 00:04:24;;;;;;;3.00;2.47;;;;;;;;;;5072160;28;20049;-68
2022/06/26 00:06:51;;;;;;;2.67;2.45;;;;;;;;;;5071943;28;20071;-69
2022/06/26 00:09:18;;;;;;;2.50;2.30;;;;;;;;;;5072008;28;20044;-68
2022/06/26 00:11:44;;;;;;;4.70;2.70;;;;;;;;;;5071648;28;20118;-68
2022/06/26 00:14:11;;;;;;;2.42;2.25;;;;;;;;;;5070785;28;20048;-68
2022/06/26 00:16:38;;;;;;;3.63;2.70;;;;;;;;;;5071743;28;20110;-68
2022/06/26 00:19:04;;;;;;;3.13;2.35;;;;;;;;;;5070946;28;20127;-68
2022/06/26 00:21:31;;;;;;;3.55;2.42;;;;;;;;;;5071688;28;20044;-68
2022/06/26 00:23:57;;;;;;;5.05;2.42;;;;;;;;;;5071892;28;20113;-69
2022/06/26 00:26:24;;;;;;;3.50;2.25;;;;;;;;;;5071636;28;20052;-68
2022/06/26 00:28:52;;;;;;;4.63;2.53;;;;;;;;;;5053940;28;20048;-69
2022/06/26 00:31:19;;;;;;;7.15;2.20;;;;;;;;;;5071553;28;20052;-68
2022/06/26 00:33:46;;;;;;;4.18;2.17;;;;;;;;;;5071715;28;20416;-68
2022/06/26 00:36:12;;;;;;;2.97;1.90;;;;;;;;;;5054103;28;20045;-68
2022/06/26 00:38:39;;;;;;;2.60;2.03;;;;;;;;;;5071746;28;20099;-68
2022/06/26 00:41:05;;;;;;;2.15;1.83;;;;;;;;;;5053776;28;20052;-68
2022/06/26 00:43:32;;;;;;;5.28;2.00;;;;;;;;;;5071799;28;20048;-67
2022/06/26 00:45:59;;;;;;;3.35;1.83;;;;;;;;;;5071585;28;20048;-68
2022/06/26 00:48:26;;;;;;;2.00;1.80;;;;;;;;;;5071741;28;20074;-68
2022/06/26 00:50:52;;;;;;;1.85;1.75;;;;;;;;;;5037047;28;20499;-67
2022/06/26 00:53:19;;;;;;;2.67;1.70;;;;;;;;;;5053791;28;20079;-68
2022/06/26 00:55:46;;;;;;;2.70;1.75;;;;;;;;;;5070223;28;20107;-67
2022/06/26 00:58:12;;;;;;;5.03;2.13;;;;;;;;;;5070432;28;20052;-67
2022/06/26 01:00:40;;;;;;;2.63;2.40;;;;;;;;;;5070292;28;20048;-68
2022/06/26 01:03:08;;;;;;;6.53;2.10;;;;;;;;;;5075384;28;20048;-68
2022/06/26 01:05:34;;;;;;;2.97;2.42;;;;;;;;;;5074084;28;20098;-67
2022/06/26 01:08:01;;;;;;;3.90;2.30;;;;;;;;;;5057350;28;20106;-68
2022/06/26 01:10:28;;;;;;;5.00;2.40;;;;;;;;;;5075472;28;20052;-67
2022/06/26 01:12:55;;;;;;;3.30;2.40;;;;;;;;;;5057086;28;20045;-67
2022/06/26 01:15:21;;;;;;;4.78;2.50;;;;;;;;;;5075097;28;20049;-68
2022/06/26 01:17:48;;;;;;;2.65;2.45;;;;;;;;;;5073945;28;20450;-68
2022/06/26 01:20:15;;;;;;;2.90;2.60;;;;;;;;;;5057175;28;20087;-67
2022/06/26 01:22:41;;;;;;;4.88;2.60;;;;;;;;;;5074624;28;20056;-68
2022/06/26 01:25:08;;;;;;;4.35;2.22;;;;;;;;;;5074800;28;20045;-68
2022/06/26 01:27:44;;;;;;;3.15;2.38;;;;;;;;;;5073818;28;20048;-68
2022/06/26 01:30:11;;;;;;;4.32;2.60;;;;;;;;;;5074715;28;20102;-68
2022/06/26 01:32:38;;;;;;;3.17;2.65;;;;;;;;;;5074630;28;20113;-67
2022/06/26 01:35:05;;;;;;;4.05;2.40;;;;;;;;;;5073312;28;20056;-68
2022/06/26 01:37:31;;;;;;;2.95;2.65;;;;;;;;;;5074665;28;20052;-68
2022/06/26 01:39:59;;;;;;;3.45;2.30;;;;;;;;;;5073423;28;20095;-68
2022/06/26 01:42:26;;;;;;;4.78;2.78;;;;;;;;;;5074361;28;20083;-67
2022/06/26 01:44:52;;;;;;;3.42;2.65;;;;;;;;;;5073634;28;20052;-68
2022/06/26 01:47:19;;;;;;;4.25;2.70;;;;;;;;;;5074370;28;20102;-69
2022/06/26 01:49:45;;;;;;;4.97;2.80;;;;;;;;;;5074391;28;20491;-67
2022/06/26 01:52:12;;;;;;;4.10;2.53;;;;;;;;;;5074460;28;20052;-68
2022/06/26 01:54:39;;;;;;;3.50;2.63;;;;;;;;;;5074542;28;20055;-67
2022/06/26 01:57:05;;;;;;;3.95;2.45;;;;;;;;;;5074386;28;20091;-69
2022/06/26 01:59:32;;;;;;;3.10;2.40;;;;;;;;;;5074283;28;20049;-68
2022/06/26 02:01:59;;;;;;;3.22;2.35;;;;;;;;;;5074096;28;20053;-67
2022/06/26 02:04:26;;;;;;;2.17;2.05;;;;;;;;;;5074013;28;20048;-68
2022/06/26 02:06:52;;;;;;;3.20;2.15;;;;;;;;;;5074244;28;20052;-67
2022/06/26 02:14:50;;;;;;;3.42;2.50;;;;;;;;;;5073952;28;20059;-67
2022/06/26 02:17:17;;;;;;;6.38;2.60;;;;;;;;;;5072767;28;20131;-68
2022/06/26 02:19:44;;;;;;;2.63;2.33;;;;;;;;;;5073823;28;20503;-68
2022/06/26 02:22:10;;;;;;;3.28;2.50;;;;;;;;;;5073642;28;20246;-68
2022/06/26 02:24:38;;;;;;;3.60;2.83;;;;;;;;;;5073953;28;20185;-68
2022/06/26 02:27:05;;;;;;;2.92;2.60;;;;;;;;;;5073709;28;20044;-67
2022/06/26 02:29:31;;;;;;;4.07;2.88;;;;;;;;;;5073793;28;20053;-67
2022/06/26 02:31:58;;;;;;;3.22;2.92;;;;;;;;;;5073798;28;20056;-68
2022/06/26 02:34:24;;;;;;;3.17;2.88;;;;;;;;;;5073575;28;20056;-69
2022/06/26 02:36:51;;;;;;;3.40;3.10;;;;;;;;;;5072470;28;20052;-68
2022/06/26 02:39:18;;;;;;;3.35;2.58;;;;;;;;;;5073648;28;20052;-68
2022/06/26 02:41:44;;;;;;;4.60;2.88;;;;;;;;;;5073332;28;20052;-68
2022/06/26 02:44:11;;;;;;;5.28;3.05;;;;;;;;;;5073608;28;20078;-67
2022/06/26 02:46:37;;;;;;;2.60;2.40;;;;;;;;;;5073386;28;20495;-67
2022/06/26 02:49:04;;;;;;;2.85;2.53;;;;;;;;;;5073428;28;20057;-68
2022/06/26 02:51:31;;;;;;;3.00;2.70;;;;;;;;;;5072246;28;20416;-68
2022/06/26 02:53:57;;;;;;;4.80;2.72;;;;;;;;;;5073468;28;20060;-67
2022/06/26 02:56:24;;;;;;;4.85;2.53;;;;;;;;;;5073095;28;20052;-67
2022/06/26 02:58:51;;;;;;;3.65;3.33;;;;;;;;;;5073535;28;20048;-67
2022/06/26 03:01:17;;;;;;;3.25;2.95;;;;;;;;;;5073132;28;20051;-67
2022/06/26 03:03:44;;;;;;;3.03;2.22;;;;;;;;;;5073185;28;20534;-67
2022/06/26 03:06:10;;;;;;;3.60;2.75;;;;;;;;;;5073023;28;20074;-68
2022/06/26 03:08:37;;;;;;;4.85;2.80;;;;;;;;;;5072907;28;20044;-68
2022/06/26 03:11:04;;;;;;;5.00;3.10;;;;;;;;;;5072712;28;20056;-67
2022/06/26 03:13:30;;;;;;;3.13;2.83;;;;;;;;;;5072989;28;20052;-67
2022/06/26 03:15:57;;;;;;;4.45;2.67;;;;;;;;;;5089858;22;20072;-66
2022/06/26 03:18:24;;;;;;;2.63;2.42;;;;;;;;;;5052781;28;20045;-66
2022/06/26 03:20:50;;;;;;;3.60;2.70;;;;;;;;;;5052589;28;20083;-67
2022/06/26 03:23:17;;;;;;;3.88;2.45;;;;;;;;;;5052356;28;20051;-66
2022/06/26 03:25:43;;;;;;;2.47;2.28;;;;;;;;;;5052274;28;20048;-66
2022/06/26 03:28:10;;;;;;;3.65;2.50;;;;;;;;;;5053200;28;20045;-66
2022/06/26 03:30:37;;;;;;;5.50;2.70;;;;;;;;;;5052544;28;20053;-65
2022/06/26 03:33:03;;;;;;;3.75;2.83;;;;;;;;;;5052500;28;20415;-67
2022/06/26 03:35:30;;;;;;;3.50;2.50;;;;;;;;;;5052856;28;20488;-66
2022/06/26 03:37:57;;;;;;;3.15;2.67;;;;;;;;;;5052475;28;20491;-66
2022/06/26 03:40:23;;;;;;;4.85;3.05;;;;;;;;;;5052349;28;20052;-66
2022/06/26 03:42:50;;;;;;;4.90;2.60;;;;;;;;;;5052396;28;20049;-66
2022/06/26 03:45:17;;;;;;;5.05;3.60;;;;;;;;;;5052545;28;20423;-67
2022/06/26 03:47:43;;;;;;;5.07;2.50;;;;;;;;;;5052302;28;20044;-67
2022/06/26 03:50:10;;;;;;;2.10;1.90;;;;;;;;;;5052190;28;20053;-67
2022/06/26 03:52:37;;;;;;;2.63;2.42;;;;;;;;;;5051941;28;20060;-68
2022/06/26 03:55:04;;;;;;;2.00;1.90;;;;;;;;;;5052239;28;20049;-67
2022/06/26 03:57:31;;;;;;;2.38;1.98;;;;;;;;;;5052259;28;20049;-67
2022/06/26 03:59:58;;;;;;;2.95;2.58;;;;;;;;;;5052047;28;20503;-67
2022/06/26 04:02:25;;;;;;;4.28;2.33;;;;;;;;;;5051841;28;20052;-66
2022/06/26 04:04:52;;;;;;;2.38;2.17;;;;;;;;;;5052071;28;20056;-65
2022/06/26 04:07:20;;;;;;;2.60;2.40;;;;;;;;;;5051857;28;20146;-65
2022/06/26 04:09:46;;;;;;;5.20;2.38;;;;;;;;;;5051947;28;20053;-64
2022/06/26 04:12:13;;;;;;;2.17;1.92;;;;;;;;;;5051926;28;20052;-64
2022/06/26 04:14:41;;;;;;;3.65;2.30;;;;;;;;;;5051886;28;20571;-64
2022/06/26 04:17:08;;;;;;;2.67;2.30;;;;;;;;;;5051718;28;20056;-64
2022/06/26 04:19:34;;;;;;;3.38;2.47;;;;;;;;;;5051802;28;20135;-64
2022/06/26 04:22:01;;;;;;;3.72;2.17;;;;;;;;;;5051566;28;20064;-64
2022/06/26 04:24:28;;;;;;;4.60;2.33;;;;;;;;;;5052348;28;20053;-64
2022/06/26 04:26:54;;;;;;;3.40;2.70;;;;;;;;;;5051535;28;20553;-64
2022/06/26 04:29:21;;;;;;;2.50;2.30;;;;;;;;;;5051711;28;20049;-65
2022/06/26 04:31:48;;;;;;;2.90;2.60;;;;;;;;;;5051613;28;20412;-64
2022/06/26 04:34:14;;;;;;;2.17;1.98;;;;;;;;;;5051549;28;20052;-65
2022/06/26 04:36:41;;;;;;;3.50;2.33;;;;;;;;;;5055155;28;20049;-64
2022/06/26 04:39:08;;;;;;;5.53;2.30;;;;;;;;;;5056225;28;20438;-64
2022/06/26 04:41:34;;;;;;;2.55;2.35;;;;;;;;;;5055616;28;20053;-64
2022/06/26 04:44:06;;;;;;;3.90;2.28;;;;;;;;;;5055815;28;20048;-64
2022/06/26 04:46:34;;;;;;;2.55;2.35;;;;;;;;;;5055699;28;20447;-65
2022/06/26 04:49:01;;;;;;;5.28;2.30;;;;;;;;;;5055515;28;20438;-64
2022/06/26 04:51:28;;;;;;;3.58;2.55;;;;;;;;;;5055682;28;20474;-64
2022/06/26 04:53:55;;;;;;;2.40;2.20;;;;;;;;;;5055550;28;20084;-65
2022/06/26 04:56:21;;;;;;;2.90;2.40;;;;;;;;;;5055422;28;20052;-63
2022/06/26 04:58:48;;;;;;;2.92;2.35;;;;;;;;;;5055497;28;20057;-63
2022/06/26 05:01:15;;;;;;;4.47;2.45;;;;;;;;;;5055207;28;20119;-64
2022/06/26 05:03:41;;;;;;;3.20;2.78;;;;;;;;;;5055277;28;20045;-64
2022/06/26 05:06:08;;;;;;;3.08;2.78;;;;;;;;;;5055591;28;20045;-64
2022/06/26 05:08:35;;;;;;;2.90;2.42;;;;;;;;;;5055207;28;20091;-64
2022/06/26 05:11:01;;;;;;;2.70;2.50;;;;;;;;;;5055232;28;20049;-63
2022/06/26 05:13:28;;;;;;;3.85;2.60;;;;;;;;;;5055234;28;20053;-64
2022/06/26 05:15:56;;;;;;;3.33;2.30;;;;;;;;;;5055084;28;20053;-64
2022/06/26 05:18:23;;;;;;;4.88;2.75;;;;;;;;;;5055050;28;20087;-64
2022/06/26 05:20:50;;;;;;;3.63;2.28;;;;;;;;;;5054861;28;20511;-64
2022/06/26 05:23:17;;;;;;;6.05;2.30;;;;;;;;;;5055170;28;20049;-64
2022/06/26 05:25:44;;;;;;;2.65;2.25;;;;;;;;;;5055140;28;20049;-63
2022/06/26 05:28:11;;;;;;;3.15;2.00;;;;;;;;;;5055109;28;20053;-64
2022/06/26 05:30:38;;;;;;;3.58;2.10;;;;;;;;;;5054711;28;20061;-64
2022/06/26 05:33:05;;;;;;;2.75;2.55;;;;;;;;;;5054905;28;20118;-64
2022/06/26 05:35:31;;;;;;;5.78;2.35;;;;;;;;;;5054825;28;20506;-64
2022/06/26 05:37:58;;;;;;;4.72;2.05;;;;;;;;;;5054827;28;20556;-64
2022/06/26 05:40:25;;;;;;;2.72;1.92;;;;;;;;;;5054759;28;20053;-63
2022/06/26 05:42:53;;;;;;;2.97;2.10;;;;;;;;;;5053353;28;20045;-63
2022/06/26 05:45:20;;;;;;;2.55;2.33;;;;;;;;;;5054436;28;20072;-63
2022/06/26 05:47:47;;;;;;;3.78;2.17;;;;;;;;;;5054230;28;20045;-63
2022/06/26 05:50:13;;;;;;;3.45;2.10;;;;;;;;;;5054658;28;20044;-63
2022/06/26 05:52:40;;;;;;;2.95;1.95;;;;;;;;;;5054276;28;20499;-63
2022/06/26 05:55:12;;;;;;;3.85;2.20;;;;;;;;;;5054487;28;20057;-63
2022/06/26 05:57:38;;;;;;;2.28;2.08;;;;;;;;;;5054203;28;20511;-64
2022/06/26 06:00:06;;;;;;;2.22;2.00;;;;;;;;;;5054740;28;20113;-64
2022/06/26 06:02:33;;;;;;;1.80;1.70;;;;;;;;;;5054137;28;20057;-64
2022/06/26 06:05:00;;;;;;;2.78;2.10;;;;;;;;;;5054292;28;20144;-64
2022/06/26 06:07:27;;;;;;;2.10;1.95;;;;;;;;;;5054128;28;20500;-64
2022/06/26 06:09:53;;;;;;;4.03;1.90;;;;;;;;;;5054158;28;20056;-64
2022/06/26 06:12:20;;;;;;;4.15;1.52;;;;;;;;;;5053896;28;20057;-64
2022/06/26 06:14:47;;;;;;;2.40;2.20;;;;;;;;;;5054203;28;20490;-64
2022/06/26 06:20:10;;;;;;;2.15;1.80;;;;;;;;;;5040949;28;20083;-64
2022/06/26 06:22:42;;;;;;;2.75;1.58;;;;;;;;;;5053703;28;20052;-63
2022/06/26 06:25:09;;;;;;;3.00;2.30;;;;;;;;;;5053962;28;20111;-64
2022/06/26 06:27:42;;;;;;;2.35;2.15;;;;;;;;;;5053728;28;20439;-63
2022/06/26 06:30:10;;;;;;;3.13;2.30;;;;;;;;;;5053861;28;20064;-63
2022/06/26 06:32:36;;;;;;;2.70;2.45;;;;;;;;;;5053460;28;20092;-63
2022/06/26 06:35:03;;;;;;;6.45;3.03;;;;;;;;;;5053774;28;20498;-63
2022/06/26 06:37:32;;;;;;;3.70;2.35;;;;;;;;;;5053522;28;20056;-63
2022/06/26 06:40:00;;;;;;;3.33;2.45;;;;;;;;;;5053743;28;20053;-63
2022/06/26 06:42:27;;;;;;;2.47;2.08;;;;;;;;;;5053494;28;20107;-63
2022/06/26 06:44:53;;;;;;;2.63;2.40;;;;;;;;;;5053501;28;20052;-63
2022/06/26 06:47:20;;;;;;;2.70;2.35;;;;;;;;;;5053753;28;20059;-63
2022/06/26 06:49:46;;;;;;;2.63;2.13;;;;;;;;;;5053312;28;20045;-63
2022/06/26 06:52:13;;;;;;;2.38;1.80;;;;;;;;;;5053947;28;20049;-63
2022/06/26 06:54:40;;;;;;;1.85;1.75;;;;;;;;;;5053384;28;20064;-63
2022/06/26 06:57:06;;;;;;;1.50;1.40;;;;;;;;;;5053629;28;20048;-63
2022/06/26 06:59:33;;;;;;;1.98;1.40;;;;;;;;;;5052254;28;20048;-63
2022/06/26 07:02:00;;;;;;;2.00;1.52;;;;;;;;;;5053066;28;20059;-63
2022/06/26 07:04:27;;;;;;;3.13;1.20;;;;;;;;;;5052912;28;20098;-63
2022/06/26 07:06:57;;;;;;;1.40;1.10;;;;;;;;;;5053107;28;20052;-63
2022/06/26 07:09:23;;;;;;;1.00;0.90;;;;;;;;;;5052878;28;20052;-65
2022/06/26 07:11:50;;;;;;;2.40;1.38;;;;;;;;;;5052762;28;20068;-66
2022/06/26 07:14:22;;;;;;;1.52;0.95;;;;;;;;;;5052976;28;20049;-64
2022/06/26 07:16:49;;;;;;;1.17;0.90;;;;;;;;;;5052870;28;20059;-64
2022/06/26 07:19:16;;;;;;;0.75;0.73;;;;;;;;;;5053321;28;20051;-65
2022/06/26 07:21:43;;;;;;;1.77;1.02;;;;;;;;;;5052612;28;20052;-65
2022/06/26 07:24:11;;;;;;;1.20;1.10;;;;;;;;;;5052783;28;20060;-65
2022/06/26 07:26:38;;;;;;;2.80;1.17;;;;;;;;;;5052694;28;20052;-64
2022/06/26 07:29:05;;;;;;;1.13;1.02;;;;;;;;;;5052547;28;20048;-65
2022/06/26 07:31:31;;;;;;;1.20;1.10;;;;;;;;;;5052364;28;20060;-65
2022/06/26 07:34:13;;;;;;;1.30;1.20;;;;;;;;;;5052655;28;20136;-65
2022/06/26 07:36:41;;;;;;;1.10;1.00;;;;;;;;;;5052549;28;20064;-64
2022/06/26 07:39:10;;;;;;;2.67;1.02;;;;;;;;;;5052525;28;20041;-65
2022/06/26 07:41:37;;;;;;;1.15;1.08;;;;;;;;;;5052472;28;20056;-64
2022/06/26 07:44:04;;;;;;;1.05;0.90;;;;;;;;;;5052448;28;20056;-64
2022/06/26 07:46:31;;;;;;;0.82;0.80;;;;;;;;;;5052789;28;20071;-64
2022/06/26 07:48:58;;;;;;;1.48;1.02;;;;;;;;;;5052154;28;20053;-63
2022/06/26 07:51:24;;;;;;;1.15;1.02;;;;;;;;;;5052310;28;20061;-64
2022/06/26 07:53:51;;;;;;;1.33;0.90;;;;;;;;;;5052324;28;20055;-63
2022/06/26 07:56:18;;;;;;;0.60;0.60;;;;;;;;;;5052164;28;20045;-64
2022/06/26 07:58:45;;;;;;;1.05;0.90;;;;;;;;;;5052222;28;20462;-64
2022/06/26 08:01:12;;;;;;;0.95;0.95;;;;;;;;;;5052427;28;20053;-65
2022/06/26 08:03:43;;;;;;;1.02;0.80;;;;;;;;;;5052050;28;20135;-64
2022/06/26 08:06:10;;;;;;;1.33;1.00;;;;;;;;;;5052033;28;20049;-63
2022/06/26 08:08:37;;;;;;;1.33;0.77;;;;;;;;;;5051934;28;20052;-65
2022/06/26 08:11:04;;;;;;;0.85;0.85;;;;;;;;;;5051373;28;20052;-65
2022/06/26 08:13:32;;;;;;;0.60;0.60;;;;;;;;;;5051936;28;20495;-65
2022/06/26 08:15:58;;;;;;;0.95;0.63;;;;;;;;;;5051895;28;20045;-64
2022/06/26 08:18:25;;;;;;;0.63;0.63;;;;;;;;;;5051935;28;20127;-65
2022/06/26 08:20:52;;;;;;;0.70;0.70;;;;;;;;;;5051900;28;20060;-64
2022/06/26 08:23:19;;;;;;;0.90;0.50;;;;;;;;;;5051824;28;20066;-64
2022/06/26 08:25:45;;;;;;;0.60;0.60;;;;;;;;;;5051908;28;20049;-65
2022/06/26 08:28:12;;;;;;;1.00;0.90;;;;;;;;;;5051988;28;20045;-64
2022/06/26 08:30:39;;;;;;;5.80;1.00;;;;;;;;;;5051863;28;20048;-64
2022/06/26 08:33:06;;;;;;;0.80;0.70;;;;;;;;;;5051684;28;20427;-65
2022/06/26 08:35:32;;;;;;;0.70;0.70;;;;;;;;;;5051816;28;20111;-64
2022/06/26 08:37:59;;;;;;;0.90;0.65;;;;;;;;;;5052220;28;20052;-64
2022/06/26 08:40:25;;;;;;;1.10;0.95;;;;;;;;;;5052258;28;20061;-64
2022/06/26 08:42:53;;;;;;;1.20;0.80;;;;;;;;;;5067563;28;20049;-65
2022/06/26 08:45:21;;;;;;;0.98;0.82;;;;;;;;;;5052321;28;20515;-65
2022/06/26 08:47:52;;;;;;;0.85;0.70;;;;;;;;;;5052325;28;20496;-65
2022/06/26 08:50:21;;;;;;;1.50;0.88;;;;;;;;;;5052185;28;20045;-64
2022/06/26 08:52:52;;;;;;;0.82;0.60;;;;;;;;;;5051349;28;20056;-64
2022/06/26 08:55:19;;;;;;;0.60;0.60;;;;;;;;;;5051959;28;20075;-64
2022/06/26 08:57:48;;;;;;;0.77;0.75;;;;;;;;;;5051654;28;20049;-64
2022/06/26 09:00:15;;;;;;;0.95;0.80;;;;;;;;;;5052110;28;20045;-63
2022/06/26 09:02:42;;;;;;;0.75;0.68;;;;;;;;;;5051417;28;20053;-64
2022/06/26 09:05:09;;;;;;;2.92;0.90;;;;;;;;;;5051711;28;20049;-64
2022/06/26 09:07:52;;;;;;;1.10;0.70;;;;;;;;;;5052070;28;20046;-64
2022/06/26 09:10:22;;;;;;;0.95;0.77;;;;;;;;;;5050376;28;20049;-64
2022/06/26 09:12:52;;;;;;;1.75;0.80;;;;;;;;;;5051235;28;20045;-64
2022/06/26 09:15:20;;;;;;;0.52;0.52;;;;;;;;;;5051448;28;20060;-65
2022/06/26 09:18:01;;;;;;;0.90;0.70;;;;;;;;;;5051826;28;20056;-65
2022/06/26 09:20:30;;;;;;;0.70;0.70;;;;;;;;;;5051661;28;20057;-64
2022/06/26 09:22:59;;;;;;;0.95;0.80;;;;;;;;;;5053304;28;20427;-64
2022/06/26 09:25:43;;;;;;;0.68;0.68;;;;;;;;;;5054959;28;20501;-64
2022/06/26 09:28:15;;;;;;;0.93;0.70;;;;;;;;;;5054886;28;20053;-64
2022/06/26 09:30:59;;;;;;;1.37;0.80;;;;;;;;;;5054993;28;20045;-63
2022/06/26 09:33:26;;;;;;;0.85;0.70;;;;;;;;;;5055094;28;20283;-64
2022/06/26 09:35:53;;;;;;;0.77;0.77;;;;;;;;;;5054960;28;20059;-64
2022/06/26 09:38:22;;;;;;;1.50;0.70;;;;;;;;;;5054766;28;20059;-65
2022/06/26 09:41:04;;;;;;;0.73;0.70;;;;;;;;;;5054781;28;20064;-65
2022/06/26 09:43:32;;;;;;;0.83;0.80;;;;;;;;;;5054863;28;20598;-63
2022/06/26 09:46:04;;;;;;;1.23;0.75;;;;;;;;;;5054890;28;20476;-65
2022/06/26 09:48:31;;;;;;;0.40;0.40;;;;;;;;;;5053321;28;20057;-64
2022/06/26 09:50:58;;;;;;;1.42;0.60;;;;;;;;;;5054345;28;20428;-64
2022/06/26 09:53:26;;;;;;;0.80;0.70;;;;;;;;;;5054638;28;20085;-64
2022/06/26 09:55:54;;;;;;;1.17;0.90;;;;;;;;;;5054600;28;20351;-64
2022/06/26 09:58:21;;;;;;;0.93;0.90;;;;;;;;;;5053380;28;20083;-64
2022/06/26 10:06:26;;;;;;;0.98;0.90;;;;;;;;;;5054545;28;20056;-64
2022/06/26 10:08:55;;;;;;;1.58;0.70;;;;;;;;;;5054195;28;20049;-64
2022/06/26 10:11:23;;;;;;;0.80;0.80;;;;;;;;;;5053994;28;20056;-64
2022/06/26 10:13:51;;;;;;;0.60;0.60;;;;;;;;;;5053989;28;20059;-65
2022/06/26 10:16:40;;;;;;;1.45;0.68;;;;;;;;;;5052900;28;20159;-64
2022/06/26 10:19:12;;;;;;;3.60;0.80;;;;;;;;;;5053928;28;20041;-64
2022/06/26 10:21:39;;;;;;;1.83;0.63;;;;;;;;;;5069280;28;20048;-64
2022/06/26 10:24:06;;;;;;;0.70;0.70;;;;;;;;;;5052688;28;20049;-65
2022/06/26 10:26:33;;;;;;;1.67;0.88;;;;;;;;;;5053752;28;20064;-64
2022/06/26 10:29:08;;;;;;;1.52;0.80;;;;;;;;;;5053964;28;20041;-64
2022/06/26 10:31:49;;;;;;;0.60;0.60;;;;;;;;;;5053861;28;20053;-64
2022/06/26 10:34:20;;;;;;;0.75;0.75;;;;;;;;;;5053565;28;20424;-64
2022/06/26 10:37:07;;;;;;;0.88;0.75;;;;;;;;;;5053694;28;20063;-65
2022/06/26 10:39:43;;;;;;;1.20;0.73;;;;;;;;;;5053998;28;20049;-64
2022/06/26 10:45:17;;;;;;;0.55;0.55;;;;;;;;;;5053550;28;20052;-64
2022/06/26 10:47:48;;;;;;;1.25;1.02;;;;;;;;;;5053695;28;20514;-65
2022/06/26 10:50:29;;;;;;;1.38;0.73;;;;;;;;;;5053532;28;20045;-65
2022/06/26 10:53:25;;;;;;;0.73;0.70;;;;;;;;;;5053328;28;20053;-65
2022/06/26 10:55:54;;;;;;;0.50;0.50;;;;;;;;;;5053446;28;20045;-63
2022/06/26 10:58:22;;;;;;;0.98;0.88;;;;;;;;;;5053480;28;20434;-64
2022/06/26 11:00:50;;;;;;;0.80;0.70;;;;;;;;;;5053167;28;20048;-65
2022/06/26 11:03:17;;;;;;;1.02;0.80;;;;;;;;;;5053239;28;20057;-64
2022/06/26 11:05:50;;;;;;;0.70;0.60;;;;;;;;;;5053178;28;20359;-64
2022/06/26 11:08:26;;;;;;;0.80;0.80;;;;;;;;;;5053327;28;20056;-65
2022/06/26 11:10:57;;;;;;;0.82;0.60;;;;;;;;;;5053194;28;20474;-64
2022/06/26 11:13:24;;;;;;;0.88;0.68;;;;;;;;;;5067744;28;20059;-65
2022/06/26 11:15:50;;;;;;;0.60;0.60;;;;;;;;;;5052843;28;20053;-64
2022/06/26 11:18:17;;;;;;;0.80;0.70;;;;;;;;;;5068325;28;20049;-65
2022/06/26 11:20:49;;;;;;;0.95;0.90;;;;;;;;;;5052673;28;20055;-63
2022/06/26 11:23:26;;;;;;;1.30;0.70;;;;;;;;;;5052587;28;20515;-65
2022/06/26 11:25:58;;;;;;;0.60;0.60;;;;;;;;;;5067847;28;20056;-65
2022/06/26 11:28:33;;;;;;;0.60;0.60;;;;;;;;;;5053002;28;20049;-64
2022/06/26 11:31:01;;;;;;;0.90;0.60;;;;;;;;;;5052358;28;20041;-64
2022/06/26 11:33:29;;;;;;;1.13;0.63;;;;;;;;;;5052690;28;20052;-64
2022/06/26 11:36:07;;;;;;;4.60;1.00;;;;;;;;;;5052575;28;20057;-64
2022/06/26 11:38:35;;;;;;;0.50;0.50;;;;;;;;;;5052573;28;20051;-64
2022/06/26 11:41:06;;;;;;;0.55;0.55;;;;;;;;;;5052459;28;20052;-65
2022/06/26 11:43:33;;;;;;;1.63;0.68;;;;;;;;;;5052323;28;20419;-65
2022/06/26 11:46:01;;;;;;;0.57;0.57;;;;;;;;;;5051626;28;20049;-65
2022/06/26 11:48:29;;;;;;;1.23;0.65;;;;;;;;;;5051331;28;20048;-65
2022/06/26 11:50:57;;;;;;;0.77;0.50;;;;;;;;;;5067223;28;20439;-64
2022/06/26 11:53:29;;;;;;;0.50;0.50;;;;;;;;;;5052384;28;20049;-65
2022/06/26 11:56:00;;;;;;;1.33;0.77;;;;;;;;;;5051953;28;20103;-64
2022/06/26 11:58:29;;;;;;;0.50;0.50;;;;;;;;;;5052462;28;20059;-65
2022/06/26 12:01:04;;;;;;;0.93;0.70;;;;;;;;;;5052082;28;20049;-65
2022/06/26 12:03:30;;;;;;;2.03;0.60;;;;;;;;;;5052093;28;20049;-65
2022/06/26 12:05:57;;;;;;;0.50;0.50;;;;;;;;;;5050794;28;20140;-65
2022/06/26 12:08:24;;;;;;;1.05;0.60;;;;;;;;;;5052028;28;20056;-65
2022/06/26 12:10:52;;;;;;;0.52;0.40;;;;;;;;;;5052028;28;20423;-65
2022/06/26 12:13:24;;;;;;;0.50;0.50;;;;;;;;;;5052189;28;20439;-65
2022/06/26 12:15:51;;;;;;;;;;;;;;;;;;5050959;28;20052;-66
2022/06/26 12:18:18;;;;;;;0.55;0.50;;;;;;;;;;5051866;28;20438;-65
2022/06/26 12:20:49;;;;;;;1.50;1.13;;;;;;;;;;5051823;28;20417;-66
2022/06/26 12:23:15;;;;;;;1.27;0.60;;;;;;;;;;5051980;28;20057;-66
2022/06/26 12:25:44;;;;;;;1.40;0.63;;;;;;;;;;5067232;28;20052;-65
2022/06/26 12:28:20;;;;;;;0.98;0.50;;;;;;;;;;5051893;28;20049;-66
2022/06/26 12:30:48;;;;;;;1.65;0.70;;;;;;;;;;5051596;28;20499;-65
2022/06/26 12:33:15;;;;;;;2.35;0.70;;;;;;;;;;5051614;28;20053;-66
2022/06/26 12:35:42;;;;;;;0.80;0.68;;;;;;;;;;5051539;28;20052;-66
2022/06/26 12:38:08;;;;;;;0.65;0.65;;;;;;;;;;5051836;28;20053;-65
2022/06/26 12:40:35;;;;;;;0.80;0.50;;;;;;;;;;5051753;28;20041;-66
2022/06/26 12:43:03;;;;;;;1.38;0.77;;;;;;;;;;5051484;28;20538;-66
2022/06/26 12:45:29;;;;;;;0.90;0.60;;;;;;;;;;5051546;28;20044;-66
2022/06/26 12:47:56;;;;;;;0.50;0.50;;;;;;;;;;5051437;28;20052;-66
2022/06/26 12:50:23;;;;;;;0.95;0.73;;;;;;;;;;5051891;28;20053;-65
2022/06/26 12:52:49;;;;;;;1.40;0.60;;;;;;;;;;5051605;28;20048;-66
2022/06/26 12:55:16;;;;;;;0.68;0.40;;;;;;;;;;5051464;28;20056;-66
2022/06/26 12:57:42;;;;;;;1.15;0.60;;;;;;;;;;5053539;28;20075;-66
2022/06/26 13:00:10;;;;;;;0.52;0.40;;;;;;;;;;5055792;28;20045;-66
2022/06/26 13:02:36;;;;;;;0.55;0.50;;;;;;;;;;5055202;28;20059;-66
2022/06/26 13:05:03;;;;;;;0.60;0.52;;;;;;;;;;5055681;28;20438;-66
2022/06/26 13:07:30;;;;;;;0.70;0.70;;;;;;;;;;5055412;28;20060;-66
2022/06/26 13:09:57;;;;;;;0.95;0.60;;;;;;;;;;5055417;28;20041;-66
2022/06/26 13:12:24;;;;;;;1.00;0.47;;;;;;;;;;5055267;28;20080;-67
2022/06/26 13:14:51;;;;;;;1.27;0.60;;;;;;;;;;5055554;28;20052;-66
2022/06/26 13:17:18;;;;;;;0.93;0.57;;;;;;;;;;5055041;28;20049;-66
2022/06/26 13:19:45;;;;;;;0.85;0.50;;;;;;;;;;5055094;28;20080;-67
2022/06/26 13:22:11;;;;;;;0.50;0.50;;;;;;;;;;5054979;28;20049;-66
2022/06/26 13:24:38;;;;;;;1.55;0.70;;;;;;;;;;5055023;28;20053;-66
2022/06/26 13:27:05;;;;;;;0.75;0.68;;;;;;;;;;5055211;28;20053;-66
2022/06/26 13:29:31;;;;;;;0.60;0.60;;;;;;;;;;5054974;28;20049;-66
2022/06/26 13:31:58;;;;;;;0.70;0.60;;;;;;;;;;5054715;28;20449;-66
2022/06/26 13:34:25;;;;;;;1.08;0.50;;;;;;;;;;5054799;28;20507;-66
2022/06/26 13:36:52;;;;;;;0.60;0.40;;;;;;;;;;5054991;28;20052;-65
2022/06/26 13:39:19;;;;;;;1.30;0.50;;;;;;;;;;5055046;28;20045;-66
2022/06/26 13:41:45;;;;;;;0.95;0.70;;;;;;;;;;5054679;28;20052;-66
2022/06/26 13:44:12;;;;;;;1.20;0.47;;;;;;;;;;5055192;28;20463;-67
2022/06/26 13:46:39;;;;;;;1.50;0.60;;;;;;;;;;5054582;28;20060;-67
2022/06/26 13:49:08;;;;;;;0.57;0.50;;;;;;;;;;5054824;28;20086;-66
2022/06/26 13:51:35;;;;;;;1.58;0.50;;;;;;;;;;5054530;28;20056;-66
2022/06/26 13:54:02;;;;;;;0.50;0.50;;;;;;;;;;5054766;28;20079;-66
2022/06/26 13:56:29;;;;;;;0.77;0.60;;;;;;;;;;5054710;28;20100;-66
2022/06/26 13:58:55;;;;;;;0.50;0.50;;;;;;;;;;5054832;28;20463;-66
2022/06/26 14:01:23;;;;;;;0.50;0.50;;;;;;;;;;5054634;28;20041;-66
2022/06/26 14:03:50;;;;;;;0.98;0.70;;;;;;;;;;5054391;28;20084;-66
2022/06/26 14:06:17;;;;;;;0.68;0.63;;;;;;;;;;5054454;28;20496;-66
2022/06/26 14:08:44;;;;;;;0.63;0.60;;;;;;;;;;5053875;28;20079;-66
2022/06/26 14:11:11;;;;;;;0.70;0.60;;;;;;;;;;5054125;28;20060;-66
2022/06/26 14:13:38;;;;;;;0.50;0.50;;;;;;;;;;5054157;28;20053;-66
2022/06/26 14:16:05;;;;;;;1.45;0.50;;;;;;;;;;5053903;28;20056;-66
2022/06/26 14:18:31;;;;;;;0.70;0.68;;;;;;;;;;5053988;28;20053;-66
2022/06/26 14:20:58;;;;;;;0.70;0.55;;;;;;;;;;5053967;28;20048;-66
2022/06/26 14:26:10;;;;;;;0.68;0.68;;;;;;;;;;5054051;28;20057;-66
2022/06/26 14:28:37;;;;;;;0.73;0.73;;;;;;;;;;5054294;28;20048;-66
2022/06/26 14:31:05;;;;;;;0.82;0.63;;;;;;;;;;5054033;28;20538;-66
2022/06/26 14:33:32;;;;;;;0.60;0.60;;;;;;;;;;5054173;28;20081;-66
2022/06/26 14:36:01;;;;;;;0.88;0.57;;;;;;;;;;5054162;28;20060;-66
2022/06/26 14:38:28;;;;;;;2.47;0.70;;;;;;;;;;5054043;28;20049;-65
2022/06/26 14:41:00;;;;;;;;;;;;;;;;;;5054392;28;20048;-66
2022/06/26 14:43:27;;;;;;;0.80;0.60;;;;;;;;;;5054150;28;19921;-66
2022/06/26 14:45:53;;;;;;;0.60;0.60;;;;;;;;;;5053857;28;20045;-66
2022/06/26 14:48:20;;;;;;;0.90;0.90;;;;;;;;;;5053959;28;20110;-66
2022/06/26 14:50:47;;;;;;;0.73;0.73;;;;;;;;;;5053617;28;20099;-66
2022/06/26 14:53:14;;;;;;;0.43;0.43;;;;;;;;;;5053564;28;20102;-65
2022/06/26 14:55:40;;;;;;;1.30;0.73;;;;;;;;;;5053358;28;20522;-66
2022/06/26 14:58:09;;;;;;;1.55;0.70;;;;;;;;;;5053590;28;20049;-66
2022/06/26 15:00:35;;;;;;;0.50;0.50;;;;;;;;;;5053383;28;20044;-66
2022/06/26 15:03:03;;;;;;;1.95;1.17;;;;;;;;;;5053088;28;20053;-66
2022/06/26 15:05:30;;;;;;;0.85;0.80;;;;;;;;;;5053064;28;20451;-66
2022/06/26 15:07:56;;;;;;;1.45;0.88;;;;;;;;;;5053398;28;20427;-66